Time;durP1;ratioP1;P1;durP2;ratioP2;P2;SDS_P1;SDS_P2;PMS_P1;PMS_P2;Temp;Humidity;BMP_temperature;BMP_pressure;BME280_temperature;BME280_humidity;BME280_pressure;Samples;Min_cycle;Max_cycle;Signal;HPM_P1;HPM_P2
2021/03/27 00:00:40;;;;;;;11.77;6.57;;;6.50;99.90;;;;;;5065061;28;20032;-76
2021/03/27 00:03:18;;;;;;;12.05;7.93;;;6.50;99.90;;;;;;5089751;28;20009;-75
2021/03/27 00:06:09;;;;;;;17.00;7.32;;;6.50;99.90;;;;;;5068904;28;20041;-75
2021/03/27 00:08:44;;;;;;;17.13;6.35;;;6.50;99.90;;;;;;5071722;28;20064;-75
2021/03/27 00:11:36;;;;;;;14.20;7.82;;;6.50;99.90;;;;;;5066654;28;20418;-76
2021/03/27 00:14:06;;;;;;;12.98;7.82;;;6.60;99.90;;;;;;5058919;28;20036;-74
2021/03/27 00:17:13;;;;;;;18.90;7.72;;;6.60;99.90;;;;;;5069931;28;20088;-75
2021/03/27 00:20:14;;;;;;;15.45;7.20;;;6.50;99.90;;;;;;5022358;28;20029;-75
2021/03/27 00:22:49;;;;;;;14.23;7.47;;;6.50;99.90;;;;;;5020701;28;20454;-75
2021/03/27 00:25:27;;;;;;;18.33;8.25;;;6.50;99.90;;;;;;5054026;28;20045;-75
2021/03/27 00:28:13;;;;;;;11.93;7.22;;;6.50;99.90;;;;;;5059725;28;20017;-76
2021/03/27 00:31:05;;;;;;;13.48;7.10;;;6.50;99.90;;;;;;5063477;28;20021;-75
2021/03/27 00:33:34;;;;;;;13.15;6.60;;;6.50;99.90;;;;;;5057718;28;20029;-75
2021/03/27 00:36:20;;;;;;;12.30;6.88;;;6.50;99.90;;;;;;5069039;28;20043;-75
2021/03/27 00:39:20;;;;;;;11.68;6.32;;;6.50;99.90;;;;;;5068680;28;20535;-75
2021/03/27 00:42:11;;;;;;;18.38;6.10;;;6.50;99.90;;;;;;5066603;28;20040;-72
2021/03/27 00:44:57;;;;;;;13.95;6.55;;;6.50;99.90;;;;;;5060617;28;20113;-76
2021/03/27 00:47:27;;;;;;;8.38;6.10;;;6.50;99.90;;;;;;5082009;28;20309;-71
2021/03/27 00:50:07;;;;;;;18.17;6.60;;;6.60;99.90;;;;;;5086880;28;20031;-74
2021/03/27 00:52:39;;;;;;;12.38;6.22;;;6.60;99.90;;;;;;5079406;28;20024;-76
2021/03/27 00:55:10;;;;;;;10.73;5.95;;;6.50;99.90;;;;;;5080858;28;20033;-74
2021/03/27 00:57:58;;;;;;;15.32;6.93;;;6.60;99.90;;;;;;5064588;28;20145;-73
2021/03/27 01:00:30;;;;;;;17.85;6.82;;;6.50;99.90;;;;;;5060606;28;20025;-77
2021/03/27 01:03:10;;;;;;;10.65;6.30;;;6.50;99.90;;;;;;5054816;28;20063;-75
2021/03/27 01:05:37;;;;;;;21.00;7.45;;;6.50;99.90;;;;;;5068803;28;20031;-75
2021/03/27 01:08:06;;;;;;;15.15;6.50;;;6.50;99.90;;;;;;5068205;28;20027;-74
2021/03/27 01:10:38;;;;;;;10.30;6.30;;;6.50;99.90;;;;;;5068834;28;20025;-73
2021/03/27 01:13:10;;;;;;;18.10;7.68;;;6.50;99.90;;;;;;5068435;28;20062;-75
2021/03/27 01:15:45;;;;;;;16.25;7.05;;;6.50;99.90;;;;;;5067683;28;20111;-75
2021/03/27 01:18:16;;;;;;;17.27;7.10;;;6.50;99.90;;;;;;5065407;28;20016;-76
2021/03/27 01:20:49;;;;;;;13.70;7.55;;;6.50;99.90;;;;;;5068496;28;20032;-75
2021/03/27 01:23:15;;;;;;;;;;;6.60;99.90;;;;;;5066815;28;20412;-74
2021/03/27 01:25:41;;;;;;;18.48;6.75;;;6.60;99.90;;;;;;5060847;28;19915;-74
2021/03/27 01:28:25;;;;;;;16.42;6.53;;;6.60;99.90;;;;;;5062818;28;20661;-75
2021/03/27 01:31:08;;;;;;;18.63;6.95;;;6.50;99.90;;;;;;5048200;28;20017;-74
2021/03/27 01:33:38;;;;;;;;;;;6.50;99.90;;;;;;5068050;28;20028;-76
2021/03/27 01:36:20;;;;;;;21.08;7.63;;;6.50;99.90;;;;;;5067737;28;19904;-74
2021/03/27 01:38:46;;;;;;;;;;;6.40;99.90;;;;;;5067552;28;20503;-74
2021/03/27 01:41:29;;;;;;;20.30;7.60;;;6.40;99.90;;;;;;5068436;28;19908;-75
2021/03/27 01:44:14;;;;;;;21.75;7.05;;;6.40;99.90;;;;;;5067529;28;20039;-74
2021/03/27 01:47:02;;;;;;;16.83;6.82;;;6.30;99.90;;;;;;5067008;28;20024;-75
2021/03/27 01:49:52;;;;;;;23.75;7.05;;;6.30;99.90;;;;;;5067179;28;20379;-75
2021/03/27 01:52:37;;;;;;;15.43;6.30;;;6.30;99.90;;;;;;5066816;28;20024;-74
2021/03/27 01:55:13;;;;;;;25.13;7.28;;;6.30;99.90;;;;;;5056767;28;20031;-76
2021/03/27 01:57:59;;;;;;;18.45;6.28;;;6.30;99.90;;;;;;5050231;28;20025;-74
2021/03/27 02:00:34;;;;;;;20.75;6.05;;;6.30;99.90;;;;;;5067107;28;20358;-78
2021/03/27 02:03:11;;;;;;;17.55;6.28;;;6.30;99.90;;;;;;5060941;28;20148;-73
2021/03/27 02:06:10;;;;;;;21.85;5.47;;;6.20;99.90;;;;;;5058876;28;20103;-74
2021/03/27 02:09:13;;;;;;;14.60;5.20;;;6.20;99.90;;;;;;5049241;28;20043;-75
2021/03/27 02:11:41;;;;;;;11.68;3.90;;;6.20;99.90;;;;;;5068170;28;20016;-75
2021/03/27 02:14:45;;;;;;;22.42;4.65;;;6.20;99.90;;;;;;5060070;28;20041;-74
2021/03/27 02:17:21;;;;;;;15.48;4.95;;;6.20;99.90;;;;;;5060617;28;20032;-74
2021/03/27 02:20:00;;;;;;;10.95;4.65;;;6.20;99.90;;;;;;5067395;28;20033;-75
2021/03/27 02:22:29;;;;;;;20.42;4.88;;;6.20;99.90;;;;;;5065076;28;20028;-75
2021/03/27 02:25:31;;;;;;;18.05;4.40;;;6.20;99.90;;;;;;5057983;28;20029;-75
2021/03/27 02:28:10;;;;;;;18.17;4.50;;;6.20;99.90;;;;;;5066455;28;20024;-74
2021/03/27 02:30:44;;;;;;;14.00;4.50;;;6.20;99.90;;;;;;5067254;28;20079;-74
2021/03/27 02:33:49;;;;;;;19.38;5.32;;;6.20;99.90;;;;;;5065415;28;20024;-73
2021/03/27 02:36:34;;;;;;;13.90;4.65;;;6.20;99.90;;;;;;5062979;28;20484;-75
2021/03/27 02:39:26;;;;;;;15.57;4.82;;;6.20;99.90;;;;;;5065758;28;20424;-73
2021/03/27 02:42:04;;;;;;;17.58;4.95;;;6.20;99.90;;;;;;5060157;28;20036;-76
2021/03/27 02:44:35;;;;;;;11.63;4.15;;;6.20;99.90;;;;;;5066408;28;20027;-74
2021/03/27 02:47:28;;;;;;;16.35;4.75;;;6.20;99.90;;;;;;5067528;28;20524;-74
2021/03/27 02:50:18;;;;;;;17.52;4.80;;;6.20;99.90;;;;;;5067317;28;20048;-75
2021/03/27 02:53:11;;;;;;;12.25;4.20;;;6.20;99.90;;;;;;5065083;28;20059;-76
2021/03/27 02:56:01;;;;;;;21.70;4.65;;;6.10;99.90;;;;;;5067231;28;20057;-76
2021/03/27 02:58:43;;;;;;;19.77;4.97;;;6.10;99.90;;;;;;5055861;28;20104;-74
2021/03/27 03:01:15;;;;;;;14.63;4.78;;;6.10;99.90;;;;;;5065265;28;20017;-74
2021/03/27 03:04:03;;;;;;;25.27;4.72;;;6.10;99.90;;;;;;5063223;28;20380;-77
2021/03/27 03:06:37;;;;;;;19.00;4.50;;;6.10;99.90;;;;;;5053186;28;20313;-74
2021/03/27 03:09:14;;;;;;;22.77;4.90;;;6.20;99.90;;;;;;5060378;28;20396;-75
2021/03/27 03:11:58;;;;;;;20.30;5.13;;;6.20;99.90;;;;;;5050301;28;20043;-75
2021/03/27 03:14:49;;;;;;;34.90;5.65;;;6.20;99.90;;;;;;5066513;28;20019;-74
2021/03/27 03:17:30;;;;;;;14.25;4.32;;;6.20;99.90;;;;;;5067599;28;20040;-75
2021/03/27 03:20:06;;;;;;;25.77;4.22;;;6.30;99.90;;;;;;5064594;28;20469;-75
2021/03/27 03:22:40;;;;;;;13.48;3.50;;;6.30;99.90;;;;;;5064599;28;20116;-76
2021/03/27 03:25:11;;;;;;;25.17;4.72;;;6.30;99.90;;;;;;5066804;28;20024;-74
2021/03/27 03:27:42;;;;;;;13.23;3.67;;;6.40;99.90;;;;;;5065507;28;20024;-76
2021/03/27 03:30:24;;;;;;;24.48;4.63;;;6.40;99.90;;;;;;5066056;28;20048;-75
2021/03/27 03:33:22;;;;;;;21.55;3.85;;;6.50;99.90;;;;;;5067780;28;20056;-75
2021/03/27 03:36:05;;;;;;;16.23;4.30;;;6.50;99.90;;;;;;5063811;28;20031;-75
2021/03/27 03:38:39;;;;;;;19.35;4.32;;;6.50;99.90;;;;;;5066755;28;20467;-76
2021/03/27 03:41:42;;;;;;;23.67;4.05;;;6.50;99.90;;;;;;5065147;28;20048;-74
2021/03/27 03:44:21;;;;;;;18.75;4.15;;;6.50;99.90;;;;;;5064649;28;20678;-74
2021/03/27 03:47:17;;;;;;;15.80;3.90;;;6.50;99.90;;;;;;5067536;28;20111;-76
2021/03/27 03:50:35;;;;;;;17.05;3.45;;;6.50;99.90;;;;;;5051323;28;20039;-74
2021/03/27 03:53:18;;;;;;;31.63;4.05;;;6.50;99.90;;;;;;5038189;28;20033;-76
2021/03/27 03:56:05;;;;;;;22.70;3.75;;;6.60;99.90;;;;;;5069566;28;20020;-73
2021/03/27 03:58:49;;;;;;;13.98;3.00;;;6.60;99.90;;;;;;5070174;28;20035;-74
2021/03/27 04:01:39;;;;;;;24.38;3.03;;;6.60;99.90;;;;;;5068632;28;20021;-76
2021/03/27 04:04:15;;;;;;;20.58;4.10;;;6.60;99.90;;;;;;5070861;28;20024;-74
2021/03/27 04:06:43;;;;;;;18.33;3.80;;;6.60;99.90;;;;;;5069949;28;20364;-76
2021/03/27 04:09:37;;;;;;;16.02;3.10;;;6.70;99.90;;;;;;5069009;28;20032;-72
2021/03/27 04:12:07;;;;;;;16.00;2.58;;;6.70;99.90;;;;;;5060781;28;20032;-75
2021/03/27 04:14:35;;;;;;;14.82;3.10;;;6.70;99.90;;;;;;5068912;28;20074;-75
2021/03/27 04:17:11;;;;;;;18.85;2.72;;;6.70;99.90;;;;;;5069146;28;20044;-74
2021/03/27 04:20:07;;;;;;;21.77;3.40;;;6.60;99.90;;;;;;5065836;28;20076;-73
2021/03/27 04:22:37;;;;;;;11.57;3.20;;;6.70;99.90;;;;;;5066442;28;20032;-76
2021/03/27 04:25:19;;;;;;;17.77;3.58;;;6.60;99.90;;;;;;5065807;28;20028;-77
2021/03/27 04:28:00;;;;;;;15.02;3.05;;;6.60;99.90;;;;;;5068477;28;20082;-74
2021/03/27 04:30:31;;;;;;;17.60;3.90;;;6.60;99.90;;;;;;5068401;28;20353;-75
2021/03/27 04:33:36;;;;;;;19.20;3.30;;;6.50;99.90;;;;;;5068333;28;20024;-75
2021/03/27 04:36:15;;;;;;;19.02;3.42;;;6.50;99.90;;;;;;5075700;28;20032;-75
2021/03/27 04:39:09;;;;;;;21.40;3.88;;;6.50;99.90;;;;;;5082269;28;20051;-75
2021/03/27 04:41:54;;;;;;;16.73;3.80;;;6.50;99.90;;;;;;5068543;28;20048;-74
2021/03/27 04:44:50;;;;;;;20.98;3.60;;;6.60;99.90;;;;;;5067943;28;20135;-74
2021/03/27 04:47:22;;;;;;;16.80;3.40;;;6.60;99.90;;;;;;5068460;28;20024;-76
2021/03/27 04:50:10;;;;;;;15.07;3.15;;;6.60;99.90;;;;;;5069034;28;20032;-76
2021/03/27 04:52:57;;;;;;;21.33;3.13;;;6.60;99.90;;;;;;5067967;28;20448;-74
2021/03/27 04:55:38;;;;;;;14.73;2.97;;;6.60;99.90;;;;;;5068377;28;20056;-76
2021/03/27 04:58:08;;;;;;;27.08;3.55;;;6.60;99.90;;;;;;5064328;28;20120;-75
2021/03/27 05:01:15;;;;;;;13.93;3.10;;;6.60;99.90;;;;;;5068539;28;20012;-73
2021/03/27 05:03:56;;;;;;;16.33;2.63;;;6.40;99.90;;;;;;5071041;28;20496;-75
2021/03/27 05:06:39;;;;;;;14.85;3.00;;;5.60;99.90;;;;;;5070780;28;20499;-75
2021/03/27 05:09:27;;;;;;;13.60;2.30;;;5.40;99.90;;;;;;5075051;28;20096;-77
2021/03/27 05:12:00;;;;;;;8.23;2.63;;;5.30;99.90;;;;;;5076915;28;20095;-76
2021/03/27 05:14:56;;;;;;;14.80;3.10;;;5.30;99.90;;;;;;5075927;28;20078;-75
2021/03/27 05:17:36;;;;;;;9.45;2.53;;;5.30;99.90;;;;;;5066948;28;20520;-76
2021/03/27 05:20:24;;;;;;;11.02;2.88;;;5.20;99.90;;;;;;5066061;28;20036;-75
2021/03/27 05:22:55;;;;;;;16.48;2.55;;;5.10;99.90;;;;;;5065195;28;20471;-76
2021/03/27 05:25:45;;;;;;;13.25;2.90;;;5.10;99.90;;;;;;5068017;28;20032;-74
2021/03/27 05:28:27;;;;;;;6.15;2.10;;;5.00;99.90;;;;;;5068919;28;20029;-75
2021/03/27 05:30:55;;;;;;;12.60;2.55;;;5.00;99.90;;;;;;5066938;28;20024;-76
2021/03/27 05:33:24;;;;;;;9.45;2.75;;;5.00;99.90;;;;;;5068262;28;20021;-76
2021/03/27 05:36:14;;;;;;;10.85;2.15;;;5.00;99.90;;;;;;5067893;28;20020;-74
2021/03/27 05:38:55;;;;;;;13.30;2.65;;;5.00;99.90;;;;;;5067861;28;20017;-76
2021/03/27 05:41:48;;;;;;;14.18;2.70;;;5.00;99.90;;;;;;5068920;28;20444;-77
2021/03/27 05:44:35;;;;;;;12.32;2.58;;;5.00;99.90;;;;;;5067608;28;20032;-76
2021/03/27 05:47:52;;;;;;;9.85;2.10;;;5.00;99.90;;;;;;5068597;28;20044;-75
2021/03/27 05:50:30;;;;;;;16.15;3.60;;;5.00;99.90;;;;;;5067370;28;20036;-75
2021/03/27 05:53:29;;;;;;;15.25;2.42;;;5.00;99.90;;;;;;5068273;28;20036;-76
2021/03/27 05:56:28;;;;;;;10.45;2.20;;;5.10;99.90;;;;;;5064247;28;20040;-74
2021/03/27 05:59:06;;;;;;;15.65;3.22;;;5.10;99.90;;;;;;5065787;28;20115;-76
2021/03/27 06:01:41;;;;;;;14.18;2.72;;;5.20;99.90;;;;;;5063881;28;20107;-76
2021/03/27 06:04:18;;;;;;;14.20;2.35;;;5.20;99.90;;;;;;5064631;28;20012;-75
2021/03/27 06:07:05;;;;;;;12.40;2.35;;;5.20;99.90;;;;;;5067145;28;20017;-77
2021/03/27 06:09:50;;;;;;;14.00;3.05;;;5.20;99.90;;;;;;5065127;28;20048;-76
2021/03/27 06:12:37;;;;;;;16.55;2.83;;;5.30;99.90;;;;;;5065733;28;20035;-77
2021/03/27 06:15:17;;;;;;;8.60;2.75;;;5.40;99.90;;;;;;5066336;28;20036;-77
2021/03/27 06:18:23;;;;;;;10.93;2.03;;;5.40;99.90;;;;;;5072626;28;20124;-75
2021/03/27 06:21:31;;;;;;;11.98;2.50;;;5.50;99.90;;;;;;5071981;28;20039;-76
2021/03/27 06:24:03;;;;;;;13.60;3.00;;;5.60;99.90;;;;;;5026098;28;20033;-76
2021/03/27 06:26:43;;;;;;;14.07;2.80;;;5.70;99.90;;;;;;5026302;28;20286;-75
2021/03/27 06:29:24;;;;;;;15.95;3.45;;;5.70;99.90;;;;;;5050081;28;20064;-76
2021/03/27 06:31:58;;;;;;;18.75;3.30;;;5.70;99.90;;;;;;5066739;28;20453;-76
2021/03/27 06:34:59;;;;;;;19.80;3.00;;;5.80;99.90;;;;;;5066954;28;20099;-76
2021/03/27 06:37:44;;;;;;;18.33;3.00;;;5.90;99.90;;;;;;5067242;28;20021;-77
2021/03/27 06:40:28;;;;;;;19.85;3.72;;;6.10;99.90;;;;;;5068138;28;20025;-76
2021/03/27 06:43:16;;;;;;;20.88;3.15;;;6.20;99.90;;;;;;5068397;28;20032;-74
2021/03/27 06:45:56;;;;;;;18.38;3.30;;;6.30;99.90;;;;;;5066024;28;20055;-75
2021/03/27 06:48:48;;;;;;;15.68;3.65;;;6.40;99.90;;;;;;5069033;28;20016;-77
2021/03/27 06:51:43;;;;;;;20.67;3.17;;;6.40;99.90;;;;;;5072069;28;20549;-75
2021/03/27 06:54:18;;;;;;;26.85;3.55;;;6.30;99.90;;;;;;5071211;28;20557;-76
2021/03/27 06:56:44;;;;;;;12.50;2.58;;;6.30;99.90;;;;;;5071726;28;20028;-75
2021/03/27 06:59:35;;;;;;;23.73;3.13;;;6.30;99.90;;;;;;5073147;28;20053;-73
2021/03/27 07:02:51;;;;;;;19.88;4.53;;;6.30;99.90;;;;;;5072362;28;20039;-75
2021/03/27 07:05:35;;;;;;;26.20;3.63;;;6.30;99.90;;;;;;5062052;28;20253;-74
2021/03/27 07:08:47;;;;;;;22.35;3.33;;;6.30;99.90;;;;;;5066492;28;20036;-74
2021/03/27 07:11:45;;;;;;;16.77;3.20;;;6.40;99.90;;;;;;5068209;28;20384;-76
2021/03/27 07:14:48;;;;;;;33.15;4.10;;;6.30;99.90;;;;;;5069759;28;20518;-75
2021/03/27 07:17:38;;;;;;;26.65;3.28;;;6.40;99.90;;;;;;5066011;28;20070;-75
2021/03/27 07:20:41;;;;;;;17.58;3.50;;;6.40;99.90;;;;;;5068268;28;20029;-74
2021/03/27 07:23:33;;;;;;;;;;;6.40;99.90;;;;;;5072873;28;20542;-75
2021/03/27 07:26:23;;;;;;;20.20;3.00;;;6.40;99.90;;;;;;5068570;28;19916;-74
2021/03/27 07:29:30;;;;;;;13.50;2.95;;;6.30;99.90;;;;;;5072059;28;20038;-74
2021/03/27 07:32:10;;;;;;;28.48;4.63;;;6.40;99.90;;;;;;5065464;28;20548;-73
2021/03/27 07:34:51;;;;;;;24.67;4.18;;;6.40;99.90;;;;;;5064207;28;20024;-73
2021/03/27 07:37:17;;;;;;;22.10;2.97;;;6.40;99.90;;;;;;5069310;28;20096;-74
2021/03/27 07:40:12;;;;;;;23.77;3.60;;;6.40;99.90;;;;;;5072300;28;20067;-74
2021/03/27 07:42:38;;;;;;;21.88;3.08;;;6.30;99.90;;;;;;5066390;28;20052;-74
2021/03/27 07:45:35;;;;;;;21.42;3.47;;;6.30;99.90;;;;;;5072214;28;20059;-74
2021/03/27 07:48:26;;;;;;;25.13;4.20;;;6.30;99.90;;;;;;5065455;28;20040;-73
2021/03/27 07:51:11;;;;;;;28.05;3.22;;;6.30;99.90;;;;;;5068927;28;20031;-74
2021/03/27 07:54:10;;;;;;;23.50;2.50;;;6.30;99.90;;;;;;5058722;28;20102;-76
2021/03/27 07:57:06;;;;;;;19.83;2.70;;;6.40;99.90;;;;;;5060622;28;20493;-74
2021/03/27 07:59:50;;;;;;;14.35;2.10;;;6.70;99.90;;;;;;5056171;28;20012;-74
2021/03/27 08:02:35;;;;;;;15.93;2.13;;;6.90;99.90;;;;;;5060573;28;20553;-71
2021/03/27 08:05:44;;;;;;;18.15;3.33;;;7.10;99.90;;;;;;5067710;28;20093;-74
2021/03/27 08:08:30;;;;;;;16.83;1.95;;;7.10;99.90;;;;;;5068416;28;20028;-74
2021/03/27 08:10:56;;;;;;;15.90;2.03;;;6.70;99.90;;;;;;5066954;28;20033;-75
2021/03/27 08:13:35;;;;;;;13.15;2.42;;;6.40;99.90;;;;;;5070815;28;20029;-74
2021/03/27 08:16:35;;;;;;;12.32;2.38;;;6.30;99.90;;;;;;5054653;28;20048;-75
2021/03/27 08:19:37;;;;;;;16.45;2.78;;;6.30;99.90;;;;;;5067817;28;20025;-76
2021/03/27 08:22:50;;;;;;;18.83;2.23;;;6.40;99.90;;;;;;5063291;28;20849;-73
2021/03/27 08:25:27;;;;;;;17.38;2.60;;;6.50;99.90;;;;;;5064787;28;20032;-74
2021/03/27 08:28:19;;;;;;;20.98;2.58;;;6.60;99.90;;;;;;5066464;28;20025;-75
2021/03/27 08:31:12;;;;;;;15.17;2.33;;;6.60;99.90;;;;;;5068899;28;20092;-73
2021/03/27 08:34:01;;;;;;;24.33;2.65;;;6.70;99.90;;;;;;5067524;28;20026;-75
2021/03/27 08:37:00;;;;;;;18.50;2.35;;;6.90;99.90;;;;;;5068224;28;20055;-73
2021/03/27 08:39:54;;;;;;;24.30;2.50;;;7.20;99.90;;;;;;5057260;28;20119;-73
2021/03/27 08:42:57;;;;;;;11.95;2.25;;;7.50;99.90;;;;;;5067357;28;20029;-75
2021/03/27 08:45:44;;;;;;;20.60;2.20;;;7.10;99.90;;;;;;5065309;28;20035;-76
2021/03/27 08:48:32;;;;;;;15.85;2.70;;;6.70;99.90;;;;;;5069218;28;20063;-71
2021/03/27 08:51:48;;;;;;;13.55;2.50;;;6.50;99.90;;;;;;5050522;28;553924;-74
2021/03/27 08:54:33;;;;;;;21.38;2.60;;;7.00;99.90;;;;;;5057919;28;20040;-74
2021/03/27 08:57:10;;;;;;;16.63;2.70;;;7.60;99.90;;;;;;5068338;28;20052;-74
2021/03/27 08:59:54;;;;;;;6.68;1.48;;;7.80;99.90;;;;;;5067944;28;20028;-77
2021/03/27 09:02:47;;;;;;;12.45;2.13;;;7.70;99.90;;;;;;5067157;28;20025;-75
2021/03/27 09:05:16;;;;;;;;;;;7.90;99.90;;;;;;5067172;28;20647;-76
2021/03/27 09:08:09;;;;;;;14.30;2.15;;;8.10;99.90;;;;;;5068715;28;19908;-74
2021/03/27 09:11:01;;;;;;;19.05;2.15;;;8.30;99.90;;;;;;5049477;28;20060;-73
2021/03/27 09:14:05;;;;;;;20.40;2.97;;;8.30;99.90;;;;;;5070281;28;20028;-72
2021/03/27 09:16:34;;;;;;;19.98;2.83;;;7.90;99.90;;;;;;5066989;28;20271;-75
2021/03/27 09:19:18;;;;;;;20.48;2.53;;;7.70;99.90;;;;;;5064541;28;20031;-75
2021/03/27 09:22:10;;;;;;;16.77;2.22;;;7.40;99.90;;;;;;5064935;28;20066;-71
2021/03/27 09:24:46;;;;;;;9.95;1.90;;;7.20;99.90;;;;;;5060288;28;20048;-72
2021/03/27 09:27:36;;;;;;;12.45;1.98;;;7.50;99.90;;;;;;5069559;28;20479;-75
2021/03/27 09:30:42;;;;;;;14.85;1.95;;;8.00;99.90;;;;;;5071223;28;20021;-75
2021/03/27 09:33:20;;;;;;;13.63;1.90;;;8.40;99.90;;;;;;5074402;28;20024;-73
2021/03/27 09:35:51;;;;;;;20.50;3.20;;;8.40;99.90;;;;;;5070852;28;20043;-71
2021/03/27 09:38:34;;;;;;;12.43;1.88;;;8.50;99.90;;;;;;5072304;28;20052;-71
2021/03/27 09:41:20;;;;;;;13.20;2.60;;;8.30;99.90;;;;;;5067739;28;20421;-72
2021/03/27 09:44:22;;;;;;;10.75;1.92;;;8.60;99.90;;;;;;5068016;28;20029;-72
2021/03/27 09:47:07;;;;;;;10.80;1.73;;;8.90;99.90;;;;;;5068100;28;20507;-73
2021/03/27 09:50:06;;;;;;;10.60;1.70;;;9.60;99.90;;;;;;5067241;28;20086;-74
2021/03/27 09:52:45;;;;;;;11.30;2.00;;;9.70;99.90;;;;;;5068820;28;20017;-75
2021/03/27 09:55:55;;;;;;;10.80;1.88;;;9.70;99.90;;;;;;5061100;28;20077;-74
2021/03/27 09:58:32;;;;;;;11.65;3.03;;;9.50;99.90;;;;;;5022186;28;20086;-75
2021/03/27 10:01:25;;;;;;;8.68;1.55;;;9.20;99.90;;;;;;5024780;28;20109;-73
2021/03/27 10:04:09;;;;;;;8.95;1.90;;;8.80;99.90;;;;;;5055368;28;20063;-76
2021/03/27 10:06:53;;;;;;;18.10;2.00;;;9.10;99.90;;;;;;5066079;28;20075;-72
2021/03/27 10:09:46;;;;;;;10.13;2.45;;;9.00;99.90;;;;;;5063726;28;20052;-72
2021/03/27 10:12:19;;;;;;;16.73;1.65;;;8.90;99.90;;;;;;5062662;28;20084;-75
2021/03/27 10:15:00;;;;;;;7.32;1.70;;;8.50;99.90;;;;;;5068411;28;20528;-73
2021/03/27 10:17:40;;;;;;;17.77;2.63;;;8.70;99.90;;;;;;5063163;28;20429;-72
2021/03/27 10:20:44;;;;;;;17.55;2.28;;;8.80;99.90;;;;;;5065797;28;20032;-74
2021/03/27 10:23:22;;;;;;;8.50;2.55;;;8.90;99.90;;;;;;5051738;28;20427;-73
2021/03/27 10:26:09;;;;;;;12.82;2.47;;;8.70;99.90;;;;;;5063603;28;20100;-75
2021/03/27 10:28:50;;;;;;;6.03;1.98;;;8.70;99.90;;;;;;5067302;28;20055;-72
2021/03/27 10:31:19;;;;;;;13.70;2.60;;;8.40;99.90;;;;;;5066742;28;20017;-72
2021/03/27 10:33:55;;;;;;;12.75;2.00;;;8.50;99.90;;;;;;5068129;28;20020;-73
2021/03/27 10:36:43;;;;;;;10.57;1.52;;;8.80;99.90;;;;;;5059460;28;20044;-73
2021/03/27 10:39:27;;;;;;;14.55;2.05;;;9.20;99.90;;;;;;5065327;28;20028;-76
2021/03/27 10:42:23;;;;;;;9.88;2.30;;;9.40;99.90;;;;;;5065886;28;20029;-74
2021/03/27 10:45:10;;;;;;;10.02;2.03;;;9.30;99.90;;;;;;5064839;28;20079;-74
2021/03/27 10:47:45;;;;;;;10.40;1.90;;;9.40;99.90;;;;;;5064579;28;20562;-72
2021/03/27 10:50:32;;;;;;;8.98;1.67;;;9.00;99.90;;;;;;5068511;28;20021;-74
2021/03/27 10:53:19;;;;;;;13.10;1.85;;;9.30;99.90;;;;;;5070324;28;20025;-76
2021/03/27 10:56:19;;;;;;;16.30;2.38;;;9.30;99.90;;;;;;5065794;28;20090;-73
2021/03/27 10:58:48;;;;;;;13.32;2.55;;;9.60;99.90;;;;;;5067043;28;20029;-73
2021/03/27 11:01:39;;;;;;;13.98;2.10;;;9.60;99.90;;;;;;5070415;28;20059;-74
2021/03/27 11:05:02;;;;;;;14.90;2.05;;;9.80;99.90;;;;;;5063178;28;20539;-72
2021/03/27 11:07:47;;;;;;;8.05;1.83;;;9.80;99.90;;;;;;5044218;28;20063;-72
2021/03/27 11:10:38;;;;;;;9.35;2.00;;;9.50;99.20;;;;;;5066262;28;20036;-73
2021/03/27 11:13:37;;;;;;;6.60;1.90;;;9.40;99.40;;;;;;5063815;28;20059;-74
2021/03/27 11:16:40;;;;;;;17.27;2.55;;;9.50;98.70;;;;;;5079565;28;20036;-74
2021/03/27 11:19:14;;;;;;;10.57;1.80;;;10.00;98.90;;;;;;5064119;28;20035;-72
2021/03/27 11:22:20;;;;;;;11.88;2.25;;;9.80;99.90;;;;;;5078792;28;20031;-71
2021/03/27 11:24:58;;;;;;;15.55;3.05;;;9.60;99.90;;;;;;5043657;28;20124;-75
2021/03/27 11:27:57;;;;;;;13.68;2.17;;;9.60;99.90;;;;;;5066257;28;20027;-74
2021/03/27 11:30:35;;;;;;;13.18;2.03;;;10.00;99.90;;;;;;5064514;28;20025;-72
2021/03/27 11:33:25;;;;;;;12.55;2.25;;;10.30;98.10;;;;;;5066464;28;20020;-74
2021/03/27 11:36:10;;;;;;;11.55;2.08;;;10.30;98.60;;;;;;5066367;28;20438;-74
2021/03/27 11:39:01;;;;;;;11.73;2.63;;;10.10;98.90;;;;;;5068079;28;20036;-74
2021/03/27 11:41:33;;;;;;;11.15;2.50;;;10.60;99.70;;;;;;5057782;28;20128;-73
2021/03/27 11:44:07;;;;;;;14.85;2.63;;;10.60;98.90;;;;;;5066766;28;20047;-75
2021/03/27 11:47:17;;;;;;;15.80;2.90;;;10.40;99.50;;;;;;5059784;28;20028;-74
2021/03/27 11:49:50;;;;;;;12.43;2.47;;;10.10;98.90;;;;;;5056667;28;20376;-73
2021/03/27 11:52:46;;;;;;;10.68;1.77;;;9.70;98.90;;;;;;5068162;28;20025;-72
2021/03/27 11:55:24;;;;;;;12.63;2.80;;;9.40;98.70;;;;;;5064235;28;20028;-76
2021/03/27 11:58:08;;;;;;;14.25;2.40;;;9.50;99.60;;;;;;5068466;28;20688;-74
2021/03/27 12:01:01;;;;;;;12.23;2.53;;;10.10;99.40;;;;;;5065512;28;20030;-72
2021/03/27 12:03:49;;;;;;;11.75;1.95;;;11.00;97.20;;;;;;5052616;28;20032;-78
2021/03/27 12:06:30;;;;;;;10.02;1.73;;;11.40;96.10;;;;;;5063386;28;20722;-74
2021/03/27 12:09:06;;;;;;;12.10;2.13;;;11.50;95.50;;;;;;5067856;28;20037;-75
2021/03/27 12:11:53;;;;;;;14.30;2.28;;;11.50;95.50;;;;;;5067396;28;20077;-72
2021/03/27 12:14:32;;;;;;;16.45;2.78;;;10.90;94.90;;;;;;5069785;28;20086;-74
2021/03/27 12:17:04;;;;;;;11.48;2.13;;;10.90;94.90;;;;;;5070123;28;20694;-75
2021/03/27 12:19:39;;;;;;;12.20;2.08;;;10.40;95.50;;;;;;5070257;28;20632;-74
2021/03/27 12:22:27;;;;;;;18.42;3.03;;;10.50;96.30;;;;;;5069559;28;20032;-77
2021/03/27 12:25:12;;;;;;;23.45;3.05;;;11.20;95.80;;;;;;5069072;28;20046;-74
2021/03/27 12:27:56;;;;;;;11.00;2.45;;;11.60;94.50;;;;;;5081584;28;20115;-74
2021/03/27 12:30:38;;;;;;;18.75;2.95;;;11.90;94.40;;;;;;5060751;28;20021;-76
2021/03/27 12:33:11;;;;;;;9.57;2.17;;;12.40;92.20;;;;;;5067793;28;20021;-77
2021/03/27 12:35:58;;;;;;;8.35;2.80;;;11.80;92.40;;;;;;5069975;28;20081;-74
2021/03/27 12:38:46;;;;;;;11.15;2.00;;;11.40;92.80;;;;;;5071274;28;20024;-76
2021/03/27 12:41:26;;;;;;;14.05;2.63;;;10.90;94.20;;;;;;5066613;28;20034;-72
2021/03/27 12:43:58;;;;;;;21.00;2.55;;;10.60;93.30;;;;;;5069092;28;20040;-73
2021/03/27 12:46:45;;;;;;;21.90;2.88;;;10.60;94.40;;;;;;5073351;28;20033;-71
2021/03/27 12:49:49;;;;;;;25.13;2.30;;;10.20;94.80;;;;;;5072391;28;20024;-72
2021/03/27 12:52:31;;;;;;;23.70;2.33;;;10.40;94.60;;;;;;5078739;28;20096;-71
2021/03/27 12:55:15;;;;;;;12.10;1.95;;;10.80;93.70;;;;;;5078672;28;20069;-76
2021/03/27 12:57:50;;;;;;;14.20;2.60;;;11.70;92.40;;;;;;5083441;28;20025;-75
2021/03/27 13:00:39;;;;;;;16.88;2.97;;;12.00;92.20;;;;;;5073685;28;20013;-73
2021/03/27 13:03:35;;;;;;;14.73;2.47;;;12.10;90.30;;;;;;5067125;28;20547;-77
2021/03/27 13:06:22;;;;;;;17.90;2.45;;;12.50;90.70;;;;;;5069327;28;20021;-76
2021/03/27 13:09:10;;;;;;;16.77;2.38;;;12.50;89.90;;;;;;5072289;28;20091;-76
2021/03/27 13:11:54;;;;;;;12.02;2.15;;;12.30;86.70;;;;;;5069487;28;20028;-75
2021/03/27 13:15:02;;;;;;;18.38;2.78;;;11.90;89.50;;;;;;5059953;28;20104;-74
2021/03/27 13:17:33;;;;;;;19.35;2.20;;;11.50;85.50;;;;;;5067663;28;20029;-72
2021/03/27 13:20:13;;;;;;;15.02;2.38;;;10.70;89.90;;;;;;5067274;28;20055;-72
2021/03/27 13:23:09;;;;;;;10.32;2.10;;;10.40;90.20;;;;;;5069808;28;20028;-72
2021/03/27 13:25:42;;;;;;;13.98;2.35;;;10.80;90.80;;;;;;5056951;28;20802;-73
2021/03/27 13:28:23;;;;;;;16.13;2.42;;;11.50;90.60;;;;;;5070741;28;20017;-73
2021/03/27 13:30:49;;;;;;;15.43;2.28;;;11.80;89.30;;;;;;5069041;28;20020;-76
2021/03/27 13:33:47;;;;;;;19.50;2.67;;;11.90;88.20;;;;;;5070012;28;20550;-74
2021/03/27 13:36:21;;;;;;;12.45;2.08;;;11.80;88.50;;;;;;5044158;28;20460;-73
2021/03/27 13:39:02;;;;;;;15.07;2.53;;;11.90;86.70;;;;;;5053943;28;20056;-72
2021/03/27 13:41:36;;;;;;;10.13;2.58;;;11.90;86.70;;;;;;5068972;28;20024;-75
2021/03/27 13:44:44;;;;;;;19.40;2.35;;;11.80;87.10;;;;;;5068780;28;20528;-76
2021/03/27 13:47:18;;;;;;;17.48;2.40;;;11.60;86.30;;;;;;5044135;28;20021;-72
2021/03/27 13:49:58;;;;;;;18.05;3.97;;;11.20;87.00;;;;;;5065851;28;20033;-75
2021/03/27 13:52:53;;;;;;;17.63;3.15;;;11.00;87.10;;;;;;5066260;28;20103;-75
2021/03/27 13:55:42;;;;;;;14.18;2.97;;;10.40;85.80;;;;;;5064213;28;20555;-74
2021/03/27 13:58:24;;;;;;;14.88;2.40;;;10.30;88.00;;;;;;5068116;28;20020;-75
2021/03/27 14:00:58;;;;;;;11.40;2.75;;;10.40;87.40;;;;;;5068242;28;20048;-72
2021/03/27 14:03:51;;;;;;;9.77;1.83;;;10.30;84.50;;;;;;5073747;28;20047;-75
2021/03/27 14:06:34;;;;;;;8.13;2.00;;;10.50;81.80;;;;;;5084577;28;20031;-76
2021/03/27 14:09:30;;;;;;;11.45;1.92;;;10.30;84.10;;;;;;5075673;28;20036;-74
2021/03/27 14:12:07;;;;;;;14.60;2.25;;;10.30;83.30;;;;;;5058814;28;21421;-73
2021/03/27 14:15:02;;;;;;;12.48;2.13;;;10.40;83.60;;;;;;5068190;28;20105;-74
2021/03/27 14:17:52;;;;;;;15.13;2.45;;;10.50;84.10;;;;;;5063758;28;20025;-70
2021/03/27 14:20:39;;;;;;;9.68;2.15;;;9.90;85.00;;;;;;5064933;28;20031;-74